sensor_id;sensor_type;location;lat;lon;timestamp;P1;durP1;ratioP1;P2;durP2;ratioP2
20995;SDS011;10656;52.200;21.052;2023-04-06T00:03:03;10.60;;;7.97;;
20995;SDS011;10656;52.200;21.052;2023-04-06T00:28:19;15.70;;;7.97;;
20995;SDS011;10656;52.200;21.052;2023-04-06T00:58:38;9.13;;;6.90;;
20995;SDS011;10656;52.200;21.052;2023-04-06T01:28:38;10.37;;;6.83;;
20995;SDS011;10656;52.200;21.052;2023-04-06T01:54:25;8.57;;;6.00;;
20995;SDS011;10656;52.200;21.052;2023-04-06T02:01:20;10.23;;;6.37;;
20995;SDS011;10656;52.200;21.052;2023-04-06T02:14:24;10.40;;;6.30;;
20995;SDS011;10656;52.200;21.052;2023-04-06T02:40:00;8.17;;;5.70;;
20995;SDS011;10656;52.200;21.052;2023-04-06T03:10:33;12.77;;;6.90;;
20995;SDS011;10656;52.200;21.052;2023-04-06T03:30:52;9.87;;;6.80;;
20995;SDS011;10656;52.200;21.052;2023-04-06T04:01:12;12.07;;;7.47;;
20995;SDS011;10656;52.200;21.052;2023-04-06T04:30:59;13.27;;;8.40;;
20995;SDS011;10656;52.200;21.052;2023-04-06T04:52:01;9.70;;;6.93;;
20995;SDS011;10656;52.200;21.052;2023-04-06T05:17:15;12.40;;;7.37;;
20995;SDS011;10656;52.200;21.052;2023-04-06T05:47:33;8.50;;;5.80;;
20995;SDS011;10656;52.200;21.052;2023-04-06T06:07:53;9.33;;;5.17;;
20995;SDS011;10656;52.200;21.052;2023-04-06T06:58:09;6.63;;;4.30;;
20995;SDS011;10656;52.200;21.052;2023-04-06T07:23:47;8.30;;;3.83;;
20995;SDS011;10656;52.200;21.052;2023-04-06T07:59:37;4.23;;;3.50;;
20995;SDS011;10656;52.200;21.052;2023-04-06T08:03:28;6.03;;;4.20;;
20995;SDS011;10656;52.200;21.052;2023-04-06T08:24:32;6.03;;;4.17;;
20995;SDS011;10656;52.200;21.052;2023-04-06T08:49:36;5.10;;;3.30;;
20995;SDS011;10656;52.200;21.052;2023-04-06T09:10:13;6.70;;;3.70;;
20995;SDS011;10656;52.200;21.052;2023-04-06T09:35:50;8.27;;;4.77;;
20995;SDS011;10656;52.200;21.052;2023-04-06T10:00:57;8.07;;;4.40;;
20995;SDS011;10656;52.200;21.052;2023-04-06T10:31:39;6.37;;;5.00;;
20995;SDS011;10656;52.200;21.052;2023-04-06T10:56:57;6.10;;;5.50;;
20995;SDS011;10656;52.200;21.052;2023-04-06T11:21:43;9.30;;;5.73;;
20995;SDS011;10656;52.200;21.052;2023-04-06T11:37:33;10.30;;;6.10;;
20995;SDS011;10656;52.200;21.052;2023-04-06T12:03:01;8.23;;;6.20;;
20995;SDS011;10656;52.200;21.052;2023-04-06T12:10:04;7.23;;;5.13;;
20995;SDS011;10656;52.200;21.052;2023-04-06T12:37:58;7.60;;;6.80;;
20995;SDS011;10656;52.200;21.052;2023-04-06T12:58:33;8.20;;;6.60;;
20995;SDS011;10656;52.200;21.052;2023-04-06T13:23:53;7.60;;;5.73;;
20995;SDS011;10656;52.200;21.052;2023-04-06T13:59:32;6.80;;;5.50;;
20995;SDS011;10656;52.200;21.052;2023-04-06T14:25:08;8.00;;;6.50;;
20995;SDS011;10656;52.200;21.052;2023-04-06T14:29:43;7.07;;;5.63;;
20995;SDS011;10656;52.200;21.052;2023-04-06T15:00:05;7.13;;;6.37;;
20995;SDS011;10656;52.200;21.052;2023-04-06T15:25:14;8.27;;;6.53;;
20995;SDS011;10656;52.200;21.052;2023-04-06T15:56:21;11.17;;;7.37;;
20995;SDS011;10656;52.200;21.052;2023-04-06T16:21:34;9.80;;;7.00;;
20995;SDS011;10656;52.200;21.052;2023-04-06T16:57:00;11.23;;;7.77;;
20995;SDS011;10656;52.200;21.052;2023-04-06T17:22:37;14.23;;;8.97;;
20995;SDS011;10656;52.200;21.052;2023-04-06T17:26:56;14.07;;;8.50;;
20995;SDS011;10656;52.200;21.052;2023-04-06T17:42:51;12.93;;;8.83;;
20995;SDS011;10656;52.200;21.052;2023-04-06T17:54:19;12.87;;;9.47;;
20995;SDS011;10656;52.200;21.052;2023-04-06T18:48:26;14.70;;;10.60;;
20995;SDS011;10656;52.200;21.052;2023-04-06T19:09:05;14.20;;;10.93;;
20995;SDS011;10656;52.200;21.052;2023-04-06T19:12:57;15.23;;;10.73;;
20995;SDS011;10656;52.200;21.052;2023-04-06T20:25:02;14.23;;;10.20;;
20995;SDS011;10656;52.200;21.052;2023-04-06T20:45:20;14.60;;;10.57;;
20995;SDS011;10656;52.200;21.052;2023-04-06T21:15:37;22.97;;;15.30;;
20995;SDS011;10656;52.200;21.052;2023-04-06T21:46:01;29.97;;;18.20;;
20995;SDS011;10656;52.200;21.052;2023-04-06T22:11:37;30.77;;;17.73;;
20995;SDS011;10656;52.200;21.052;2023-04-06T22:15:55;30.60;;;18.27;;
20995;SDS011;10656;52.200;21.052;2023-04-06T22:36:52;28.80;;;19.13;;
20995;SDS011;10656;52.200;21.052;2023-04-06T23:01:34;29.10;;;18.00;;
20995;SDS011;10656;52.200;21.052;2023-04-06T23:27:22;28.60;;;17.57;;
20995;SDS011;10656;52.200;21.052;2023-04-06T23:52:53;36.13;;;20.67;;
